Redington Shores, Florida
Current Conditions -  °F | °C
As of 1:53 PM on Sunday 21 Dec 2014 (Local Time) from KPIE Reporting Station
Overcast Overcast  
Wind Chill: 76°   Ceiling: 7000
Heat Index: 76°   Visibility: 10mi
Dew Point: 63°   Wind: 7mph
Humidity: 64%   Direction: 170°S
Pressure: 30.02"   Gusts: NA
Location:  27.8164°N, 82.7802°W
Report Text: KPIE 211853Z 17006KT 10SM OVC070 24/17 A3002 RMK AO2 SLP165 T02440172
Loading
Personal Weather Stations






























Interactive Weather Map New forecast layout! Learn more

10-Day Weather Forecast

Advertisements
Track Severe Weather on mobile